createdAt,value
2022-11-04T00:00:03.885Z,0.00
2022-11-04T00:01:03.863Z,0.00
2022-11-04T00:02:03.839Z,0.00
2022-11-04T00:03:03.790Z,0.00
2022-11-04T00:04:03.742Z,0.00
2022-11-04T00:05:03.743Z,0.00
2022-11-04T00:06:03.743Z,0.00
2022-11-04T00:07:03.713Z,0.00
2022-11-04T00:08:03.708Z,0.00
2022-11-04T00:09:03.687Z,0.00
2022-11-04T00:10:03.793Z,0.00
2022-11-04T00:11:03.675Z,0.00
2022-11-04T00:12:03.763Z,0.00
2022-11-04T00:13:03.726Z,0.00
2022-11-04T00:14:03.937Z,0.00
2022-11-04T00:15:03.788Z,0.00
2022-11-04T00:16:03.636Z,0.00
2022-11-04T00:17:03.612Z,0.00
2022-11-04T00:18:03.628Z,0.00
2022-11-04T00:19:03.656Z,0.00
2022-11-04T00:20:03.762Z,0.00
2022-11-04T00:21:03.577Z,0.00
2022-11-04T00:22:03.586Z,0.00
2022-11-04T00:23:03.584Z,0.00
2022-11-04T00:24:03.551Z,0.00
2022-11-04T00:25:03.563Z,0.00
2022-11-04T00:26:03.563Z,0.00
2022-11-04T00:27:03.515Z,0.00
2022-11-04T00:28:03.555Z,0.00
2022-11-04T00:29:03.489Z,0.00
2022-11-04T00:30:03.615Z,0.00
2022-11-04T00:31:03.477Z,0.00
2022-11-04T00:32:03.566Z,0.00
2022-11-04T00:33:03.496Z,0.00
2022-11-04T00:34:03.460Z,0.00
2022-11-04T00:35:03.432Z,0.00
2022-11-04T00:36:03.508Z,0.00
2022-11-04T00:37:03.438Z,0.00
2022-11-04T00:38:03.413Z,0.00
2022-11-04T00:39:03.409Z,0.00
2022-11-04T00:40:03.380Z,0.00
2022-11-04T00:41:03.366Z,0.00
2022-11-04T00:42:03.381Z,0.00
2022-11-04T00:43:03.358Z,0.00
2022-11-04T00:44:03.415Z,0.00
2022-11-04T00:45:03.330Z,0.00
2022-11-04T00:46:03.322Z,0.00
2022-11-04T00:47:03.351Z,0.00
2022-11-04T00:48:03.316Z,0.00
2022-11-04T00:49:03.316Z,0.00
2022-11-04T00:50:03.296Z,0.00
2022-11-04T00:51:03.324Z,0.00
2022-11-04T00:52:03.331Z,0.00
2022-11-04T00:53:03.266Z,0.00
2022-11-04T00:54:03.247Z,0.00
2022-11-04T00:55:03.236Z,0.00
2022-11-04T00:56:03.246Z,0.00
2022-11-04T00:57:03.246Z,0.00
2022-11-04T00:58:03.224Z,0.00
2022-11-04T00:59:03.216Z,0.00
2022-11-04T01:00:03.190Z,0.00
2022-11-04T01:01:03.251Z,0.00
2022-11-04T01:02:03.352Z,0.00
2022-11-04T01:03:03.238Z,0.00
2022-11-04T01:04:03.155Z,0.00
2022-11-04T01:05:03.129Z,0.00
2022-11-04T01:06:03.286Z,0.00
2022-11-04T01:07:03.139Z,0.00
2022-11-04T01:08:03.165Z,0.00
2022-11-04T01:09:03.110Z,0.00
2022-11-04T01:10:03.103Z,0.00
2022-11-04T01:11:03.073Z,0.00
2022-11-04T01:12:03.087Z,0.00
2022-11-04T01:13:03.072Z,0.00
2022-11-04T01:14:03.101Z,0.00
2022-11-04T01:15:03.095Z,0.00
2022-11-04T01:16:03.030Z,0.00
2022-11-04T01:17:03.021Z,0.00
2022-11-04T01:18:03.033Z,0.00
2022-11-04T01:19:02.999Z,0.00
2022-11-04T01:20:03.087Z,0.00
2022-11-04T01:21:02.977Z,0.00
2022-11-04T01:22:02.995Z,0.00
2022-11-04T01:23:02.970Z,0.00
2022-11-04T01:24:03.013Z,0.00
2022-11-04T01:25:02.988Z,0.00
2022-11-04T01:26:02.933Z,0.00
2022-11-04T01:27:02.935Z,0.00
2022-11-04T01:28:02.905Z,0.00
2022-11-04T01:29:02.917Z,0.00
2022-11-04T01:30:02.941Z,0.00
2022-11-04T01:31:02.880Z,0.00
2022-11-04T01:32:02.885Z,0.00
2022-11-04T01:33:02.857Z,0.00
2022-11-04T01:34:02.848Z,0.00
2022-11-04T01:35:02.843Z,0.00
2022-11-04T01:36:02.827Z,0.00
2022-11-04T01:37:02.853Z,0.00
2022-11-04T01:38:02.813Z,0.00
2022-11-04T01:39:02.842Z,0.00
2022-11-04T01:40:02.793Z,0.00
2022-11-04T01:41:02.804Z,0.00
2022-11-04T01:43:02.779Z,0.00
2022-11-04T01:44:02.763Z,0.00
2022-11-04T01:45:02.733Z,0.00
2022-11-04T01:46:02.723Z,0.00
2022-11-04T01:47:02.724Z,0.00
2022-11-04T01:48:02.729Z,0.00
2022-11-04T01:49:02.723Z,0.00
2022-11-04T01:50:02.685Z,0.00
2022-11-04T01:51:02.666Z,0.00
2022-11-04T01:52:02.687Z,0.00
2022-11-04T01:53:02.657Z,0.00
2022-11-04T01:54:02.665Z,0.00
2022-11-04T01:55:02.673Z,0.00
2022-11-04T01:56:02.646Z,0.00
2022-11-04T01:57:02.622Z,0.00
2022-11-04T01:58:02.602Z,0.00
2022-11-04T01:59:02.596Z,0.00
2022-11-04T02:00:02.599Z,0.00
2022-11-04T02:01:02.695Z,0.00
2022-11-04T02:02:02.660Z,0.00
2022-11-04T02:03:02.568Z,0.00
2022-11-04T02:04:02.551Z,0.00
2022-11-04T02:05:02.543Z,0.00
2022-11-04T02:06:02.573Z,0.00
2022-11-04T02:07:02.555Z,0.00
2022-11-04T02:08:02.553Z,0.00
2022-11-04T02:09:02.528Z,0.00
2022-11-04T02:10:02.489Z,0.00
2022-11-04T02:11:02.483Z,0.00
2022-11-04T02:12:02.555Z,0.00
2022-11-04T02:13:02.454Z,0.00
2022-11-04T02:14:02.439Z,0.00
2022-11-04T02:15:02.479Z,0.00
2022-11-04T02:16:02.450Z,0.00
2022-11-04T02:17:02.545Z,0.00
2022-11-04T02:18:02.478Z,0.00
2022-11-04T02:19:02.392Z,0.00
2022-11-04T02:20:02.395Z,0.00
2022-11-04T02:21:02.384Z,0.00
2022-11-04T02:22:02.372Z,0.00
2022-11-04T02:23:02.375Z,0.00
2022-11-04T02:24:02.345Z,0.00
2022-11-04T02:25:02.352Z,0.00
2022-11-04T02:26:02.323Z,0.00
2022-11-04T02:27:02.308Z,0.00
2022-11-04T02:28:02.331Z,0.00
2022-11-04T02:29:02.321Z,0.00
2022-11-04T02:30:02.283Z,0.00
2022-11-04T02:31:34.174Z,0.00
2022-11-04T02:32:02.247Z,0.00
2022-11-04T02:33:02.233Z,0.00
2022-11-04T02:34:02.251Z,0.00
2022-11-04T02:35:02.273Z,0.00
2022-11-04T02:36:02.228Z,0.00
2022-11-04T02:37:02.206Z,0.00
2022-11-04T02:38:02.203Z,0.00
2022-11-04T02:39:02.186Z,0.00
2022-11-04T02:40:02.195Z,0.00
2022-11-04T02:41:02.280Z,0.00
2022-11-04T02:42:02.176Z,0.00
2022-11-04T02:43:02.164Z,0.00
2022-11-04T02:44:02.139Z,0.00
2022-11-04T02:45:02.154Z,0.00
2022-11-04T02:46:02.134Z,0.00
2022-11-04T02:47:02.130Z,0.00
2022-11-04T02:48:02.106Z,0.00
2022-11-04T02:49:02.087Z,0.00
2022-11-04T02:50:02.094Z,0.00
2022-11-04T02:51:02.065Z,0.00
2022-11-04T02:52:02.076Z,0.00
2022-11-04T02:53:02.042Z,0.00
2022-11-04T02:54:02.049Z,0.00
2022-11-04T02:55:02.025Z,0.00
2022-11-04T02:56:02.100Z,0.00
2022-11-04T02:57:02.005Z,0.00
2022-11-04T02:58:02.020Z,0.00
2022-11-04T02:59:02.003Z,0.00
2022-11-04T03:00:01.974Z,0.00
2022-11-04T03:01:02.040Z,0.00
2022-11-04T03:02:02.026Z,0.00
2022-11-04T03:03:02.001Z,0.00
2022-11-04T03:04:01.994Z,0.00
2022-11-04T03:05:01.923Z,0.00
2022-11-04T03:06:01.919Z,0.00
2022-11-04T03:07:02.044Z,0.00
2022-11-04T03:08:01.892Z,0.00
2022-11-04T03:09:01.905Z,0.00
2022-11-04T03:10:01.891Z,0.00
2022-11-04T03:11:01.861Z,0.00
2022-11-04T03:12:01.866Z,0.00
2022-11-04T03:13:01.846Z,0.00
2022-11-04T03:14:01.837Z,0.00
2022-11-04T03:15:01.857Z,0.00
2022-11-04T03:16:01.824Z,0.00
2022-11-04T03:17:01.810Z,0.00
2022-11-04T03:18:01.826Z,0.00
2022-11-04T03:19:01.788Z,0.00
2022-11-04T03:20:01.777Z,0.00
2022-11-04T03:21:01.784Z,0.00
2022-11-04T03:22:01.743Z,0.00
2022-11-04T03:23:01.738Z,0.00
2022-11-04T03:24:01.740Z,0.00
2022-11-04T03:25:01.748Z,0.00
2022-11-04T03:26:01.712Z,0.00
2022-11-04T03:27:01.696Z,0.00
2022-11-04T03:28:01.714Z,0.00
2022-11-04T03:29:01.684Z,0.00
2022-11-04T03:30:01.731Z,0.00
2022-11-04T03:31:01.658Z,0.00
2022-11-04T03:32:01.744Z,0.00
2022-11-04T03:33:01.633Z,0.00
2022-11-04T03:34:01.637Z,0.00
2022-11-04T03:35:01.644Z,0.00
2022-11-04T03:36:01.599Z,0.00
2022-11-04T03:37:01.594Z,0.00
2022-11-04T03:38:01.589Z,0.00
2022-11-04T03:39:01.596Z,0.00
2022-11-04T03:40:01.578Z,0.00
2022-11-04T03:41:01.585Z,0.00
2022-11-04T03:42:01.559Z,0.00
2022-11-04T03:43:01.569Z,0.00
2022-11-04T03:44:01.535Z,0.00
2022-11-04T03:45:01.562Z,0.00
2022-11-04T03:46:01.505Z,0.00
2022-11-04T03:47:01.510Z,0.00
2022-11-04T03:48:01.515Z,0.00
2022-11-04T03:49:01.506Z,0.00
2022-11-04T03:50:01.524Z,0.00
2022-11-04T03:51:01.483Z,0.00
2022-11-04T03:52:01.518Z,0.00
2022-11-04T03:53:01.447Z,0.00
2022-11-04T03:54:01.498Z,0.00
2022-11-04T03:55:01.439Z,0.00
2022-11-04T03:56:01.418Z,0.00
2022-11-04T03:57:01.405Z,0.00
2022-11-04T03:58:01.396Z,0.00
2022-11-04T03:59:01.405Z,0.00
2022-11-04T04:00:01.428Z,0.00
2022-11-04T04:01:01.417Z,0.00
2022-11-04T04:02:01.433Z,0.00
2022-11-04T04:03:01.380Z,0.00
2022-11-04T04:04:01.385Z,0.00
2022-11-04T04:05:01.320Z,0.00
2022-11-04T04:06:01.314Z,0.00
2022-11-04T04:07:01.302Z,0.00
2022-11-04T04:08:01.317Z,0.00
2022-11-04T04:09:01.288Z,0.00
2022-11-04T04:10:01.300Z,0.00
2022-11-04T04:11:01.304Z,0.00
2022-11-04T04:12:01.257Z,0.00
2022-11-04T04:13:01.275Z,0.00
2022-11-04T04:14:01.233Z,0.00
2022-11-04T04:15:01.229Z,0.00
2022-11-04T04:16:01.244Z,0.00
2022-11-04T04:17:01.239Z,0.00
2022-11-04T04:18:01.200Z,0.00
2022-11-04T04:19:01.194Z,0.00
2022-11-04T04:20:01.174Z,0.00
2022-11-04T04:21:01.167Z,0.00
2022-11-04T04:22:01.170Z,0.00
2022-11-04T04:23:01.168Z,0.00
2022-11-04T04:24:01.177Z,0.00
2022-11-04T04:25:01.137Z,0.00
2022-11-04T04:26:01.123Z,0.00
2022-11-04T04:27:01.098Z,0.00
2022-11-04T04:28:01.097Z,0.00
2022-11-04T04:29:01.084Z,0.00
2022-11-04T04:30:01.093Z,0.00
2022-11-04T04:31:01.112Z,0.00
2022-11-04T04:32:01.106Z,0.00
2022-11-04T04:33:01.063Z,0.00
2022-11-04T04:34:01.040Z,0.00
2022-11-04T04:35:01.045Z,0.00
2022-11-04T04:36:01.059Z,0.00
2022-11-04T04:37:01.003Z,0.00
2022-11-04T04:38:00.996Z,0.00
2022-11-04T04:39:00.989Z,0.00
2022-11-04T04:40:01.002Z,0.00
2022-11-04T04:41:01.003Z,0.00
2022-11-04T04:42:01.020Z,0.00
2022-11-04T04:43:00.939Z,0.00
2022-11-04T04:44:00.938Z,0.00
2022-11-04T04:45:00.909Z,0.00
2022-11-04T04:46:00.979Z,0.00
2022-11-04T04:47:01.954Z,0.00
2022-11-04T04:48:00.900Z,0.00
2022-11-04T04:49:00.888Z,0.00
2022-11-04T04:50:00.882Z,0.00
2022-11-04T04:51:00.872Z,0.00
2022-11-04T04:52:00.870Z,0.00
2022-11-04T04:53:00.864Z,0.00
2022-11-04T04:54:00.833Z,0.00
2022-11-04T04:55:00.821Z,0.00
2022-11-04T04:56:00.839Z,0.00
2022-11-04T04:57:00.809Z,0.00
2022-11-04T04:58:00.773Z,0.00
2022-11-04T04:59:00.788Z,0.00
2022-11-04T05:00:00.790Z,0.00
2022-11-04T05:01:00.845Z,0.00
2022-11-04T05:02:00.880Z,0.00
2022-11-04T05:03:00.744Z,0.00
2022-11-04T05:04:00.725Z,0.00
2022-11-04T05:05:00.771Z,0.00
2022-11-04T05:06:00.732Z,0.00
2022-11-04T05:07:00.715Z,0.00
2022-11-04T05:08:00.690Z,0.00
2022-11-04T05:09:00.690Z,0.00
2022-11-04T05:10:00.680Z,0.00
2022-11-04T05:11:00.660Z,0.00
2022-11-04T05:12:00.674Z,0.00
2022-11-04T05:13:00.665Z,0.00
2022-11-04T05:14:00.633Z,0.00
2022-11-04T05:15:00.608Z,0.00
2022-11-04T05:16:01.627Z,0.00
2022-11-04T05:17:00.633Z,0.00
2022-11-04T05:18:00.623Z,0.00
2022-11-04T05:19:00.613Z,0.00
2022-11-04T05:20:00.578Z,0.00
2022-11-04T05:21:00.595Z,0.00
2022-11-04T05:22:00.596Z,0.00
2022-11-04T05:23:00.557Z,0.00
2022-11-04T05:24:00.530Z,0.00
2022-11-04T05:25:00.526Z,0.00
2022-11-04T05:26:00.541Z,0.00
2022-11-04T05:27:00.509Z,0.00
2022-11-04T05:28:00.529Z,0.00
2022-11-04T05:29:00.585Z,0.00
2022-11-04T05:30:00.509Z,0.00
2022-11-04T05:31:00.471Z,0.00
2022-11-04T05:32:00.463Z,0.00
2022-11-04T05:33:04.631Z,0.00
2022-11-04T05:34:00.435Z,0.00
2022-11-04T05:35:00.444Z,0.00
2022-11-04T05:36:00.422Z,0.00
2022-11-04T05:37:00.406Z,0.00
2022-11-04T05:38:00.407Z,0.00
2022-11-04T05:39:00.380Z,0.00
2022-11-04T05:40:00.394Z,0.00
2022-11-04T05:41:00.453Z,0.00
2022-11-04T05:42:00.358Z,0.00
2022-11-04T05:43:00.364Z,0.00
2022-11-04T05:44:00.393Z,0.00
2022-11-04T05:45:00.331Z,0.00
2022-11-04T05:46:00.322Z,0.00
2022-11-04T05:47:00.321Z,0.00
2022-11-04T05:48:00.296Z,0.00
2022-11-04T05:49:00.305Z,0.00
2022-11-04T05:50:01.283Z,0.00
2022-11-04T05:51:00.285Z,0.00
2022-11-04T05:52:00.292Z,0.00
2022-11-04T05:53:00.396Z,0.00
2022-11-04T05:54:00.260Z,0.00
2022-11-04T05:55:00.290Z,0.00
2022-11-04T05:56:00.224Z,0.00
2022-11-04T05:57:00.209Z,0.00
2022-11-04T05:58:00.203Z,0.00
2022-11-04T05:59:00.207Z,0.00
2022-11-04T06:00:00.224Z,0.00
2022-11-04T06:01:00.167Z,0.00
2022-11-04T06:02:00.328Z,0.00
2022-11-04T06:03:00.275Z,0.00
2022-11-04T06:04:00.186Z,0.00
2022-11-04T06:05:00.159Z,0.00
2022-11-04T06:06:00.157Z,0.00
2022-11-04T06:07:00.104Z,0.00
2022-11-04T06:08:00.116Z,0.00
2022-11-04T06:09:00.103Z,0.00
2022-11-04T06:10:00.090Z,0.00
2022-11-04T06:11:00.075Z,0.00
2022-11-04T06:12:00.206Z,0.00
2022-11-04T06:13:00.100Z,0.00
2022-11-04T06:14:00.036Z,0.00
2022-11-04T06:15:00.035Z,0.00
2022-11-04T06:16:00.056Z,0.00
2022-11-04T06:17:00.120Z,0.00
2022-11-04T06:18:00.023Z,0.00
2022-11-04T06:19:03.550Z,0.00
2022-11-04T06:20:00.986Z,0.00
2022-11-04T06:20:59.979Z,5.62
2022-11-04T06:22:00.042Z,5.62
2022-11-04T06:22:59.948Z,5.62
2022-11-04T06:23:59.959Z,5.62
2022-11-04T06:24:59.932Z,5.62
2022-11-04T06:25:59.916Z,5.62
2022-11-04T06:26:59.909Z,5.62
2022-11-04T06:27:59.904Z,5.62
2022-11-04T06:28:59.912Z,5.62
2022-11-04T06:29:59.887Z,5.62
2022-11-04T06:30:59.907Z,11.25
2022-11-04T06:31:59.856Z,11.25
2022-11-04T06:32:59.846Z,11.25
2022-11-04T06:33:59.865Z,11.25
2022-11-04T06:34:59.834Z,11.25
2022-11-04T06:35:59.827Z,16.88
2022-11-04T06:36:59.827Z,16.88
2022-11-04T06:37:59.805Z,16.88
2022-11-04T06:39:04.344Z,16.88
2022-11-04T06:40:00.776Z,16.88
2022-11-04T06:40:59.810Z,16.88
2022-11-04T06:42:02.705Z,22.50
2022-11-04T06:42:59.797Z,22.50
2022-11-04T06:43:59.754Z,22.50
2022-11-04T06:44:59.733Z,22.50
2022-11-04T06:45:59.744Z,22.50
2022-11-04T06:46:59.713Z,28.12
2022-11-04T06:47:59.722Z,28.12
2022-11-04T06:48:59.691Z,28.12
2022-11-04T06:49:59.694Z,28.12
2022-11-04T06:50:59.675Z,28.12
2022-11-04T06:51:59.681Z,28.12
2022-11-04T06:52:59.665Z,28.12
2022-11-04T06:53:59.631Z,33.75
2022-11-04T06:54:59.659Z,33.75
2022-11-04T06:55:59.690Z,33.75
2022-11-04T06:56:59.652Z,33.75
2022-11-04T06:57:59.595Z,33.75
2022-11-04T06:58:59.592Z,39.38
2022-11-04T06:59:59.604Z,39.38
2022-11-04T07:00:59.579Z,39.38
2022-11-04T07:02:00.698Z,45.00
2022-11-04T07:02:59.542Z,45.00
2022-11-04T07:03:59.537Z,45.00
2022-11-04T07:04:59.558Z,45.00
2022-11-04T07:05:59.518Z,50.62
2022-11-04T07:06:59.598Z,50.62
2022-11-04T07:07:59.493Z,50.62
2022-11-04T07:08:59.492Z,56.25
2022-11-04T07:09:59.575Z,56.25
2022-11-04T07:10:59.463Z,56.25
2022-11-04T07:11:59.455Z,56.25
2022-11-04T07:12:59.443Z,56.25
2022-11-04T07:14:00.456Z,56.25
2022-11-04T07:14:59.421Z,56.25
2022-11-04T07:15:59.495Z,56.25
2022-11-04T07:16:59.426Z,56.25
2022-11-04T07:17:59.394Z,61.88
2022-11-04T07:18:59.388Z,61.88
2022-11-04T07:19:59.436Z,61.88
2022-11-04T07:20:59.425Z,61.88
2022-11-04T07:21:59.383Z,67.50
2022-11-04T07:22:59.343Z,67.50
2022-11-04T07:23:59.364Z,73.12
2022-11-04T07:24:59.361Z,73.12
2022-11-04T07:25:59.320Z,78.75
2022-11-04T07:26:59.320Z,78.75
2022-11-04T07:28:02.122Z,84.38
2022-11-04T07:29:00.303Z,84.38
2022-11-04T07:29:59.352Z,84.38
2022-11-04T07:30:59.383Z,84.38
2022-11-04T07:31:59.255Z,90.00
2022-11-04T07:32:59.331Z,90.00
2022-11-04T07:33:59.240Z,90.00
2022-11-04T07:34:59.244Z,95.62
2022-11-04T07:35:59.257Z,95.62
2022-11-04T07:36:59.210Z,101.25
2022-11-04T07:37:59.219Z,101.25
2022-11-04T07:38:59.194Z,106.88
2022-11-04T07:39:59.181Z,106.88
2022-11-04T07:40:59.167Z,112.50
2022-11-04T07:41:59.773Z,118.12
2022-11-04T07:42:59.182Z,118.12
2022-11-04T07:43:59.148Z,123.75
2022-11-04T07:44:59.134Z,129.38
2022-11-04T07:45:59.115Z,135.00
2022-11-04T07:46:59.114Z,140.62
2022-11-04T07:47:59.086Z,151.88
2022-11-04T07:48:59.136Z,157.50
2022-11-04T07:49:59.122Z,163.12
2022-11-04T07:50:59.069Z,163.12
2022-11-04T07:51:59.057Z,168.75
2022-11-04T07:52:59.082Z,168.75
2022-11-04T07:53:59.067Z,168.75
2022-11-04T07:54:59.034Z,168.75
2022-11-04T07:55:59.006Z,168.75
2022-11-04T07:56:58.994Z,168.75
2022-11-04T07:57:58.986Z,168.75
2022-11-04T07:58:59.001Z,163.12
2022-11-04T07:59:59.003Z,163.12
2022-11-04T08:00:58.957Z,157.50
2022-11-04T08:01:59.143Z,151.88
2022-11-04T08:02:59.003Z,151.88
2022-11-04T08:03:58.935Z,151.88
2022-11-04T08:04:58.932Z,146.25
2022-11-04T08:05:58.909Z,140.62
2022-11-04T08:06:58.903Z,140.62
2022-11-04T08:07:58.889Z,140.62
2022-11-04T08:08:58.993Z,140.62
2022-11-04T08:09:58.861Z,135.00
2022-11-04T08:10:58.854Z,135.00
2022-11-04T08:11:58.860Z,135.00
2022-11-04T08:12:58.864Z,135.00
2022-11-04T08:13:58.874Z,135.00
2022-11-04T08:14:58.884Z,135.00
2022-11-04T08:15:58.811Z,135.00
2022-11-04T08:16:58.805Z,135.00
2022-11-04T08:17:58.807Z,140.62
2022-11-04T08:18:58.804Z,140.62
2022-11-04T08:19:58.778Z,140.62
2022-11-04T08:20:58.765Z,140.62
2022-11-04T08:21:58.752Z,146.25
2022-11-04T08:22:58.740Z,151.88
2022-11-04T08:23:58.748Z,157.50
2022-11-04T08:24:58.744Z,163.12
2022-11-04T08:25:58.815Z,168.75
2022-11-04T08:26:58.703Z,168.75
2022-11-04T08:28:01.105Z,174.38
2022-11-04T08:28:58.696Z,180.00
2022-11-04T08:29:58.690Z,180.00
2022-11-04T08:31:00.553Z,180.00
2022-11-04T08:32:24.571Z,185.62
2022-11-04T08:32:58.687Z,196.88
2022-11-04T08:33:58.684Z,202.50
2022-11-04T08:34:58.647Z,202.50
2022-11-04T08:35:58.657Z,208.12
2022-11-04T08:36:58.625Z,208.12
2022-11-04T08:37:58.605Z,213.75
2022-11-04T08:38:58.592Z,213.75
2022-11-04T08:39:58.586Z,219.38
2022-11-04T08:41:00.087Z,225.00
2022-11-04T08:41:58.599Z,236.25
2022-11-04T08:42:58.560Z,241.88
2022-11-04T08:43:58.552Z,253.12
2022-11-04T08:44:58.552Z,264.38
2022-11-04T08:45:58.546Z,275.62
2022-11-04T08:46:58.539Z,286.88
2022-11-04T08:48:04.176Z,292.50
2022-11-04T08:49:01.167Z,303.75
2022-11-04T08:49:58.500Z,315.00
2022-11-04T08:50:58.490Z,320.62
2022-11-04T08:51:58.471Z,337.50
2022-11-04T08:52:58.492Z,348.75
2022-11-04T08:53:58.448Z,371.25
2022-11-04T08:54:58.463Z,382.50
2022-11-04T08:55:58.429Z,399.38
2022-11-04T08:56:58.427Z,416.25
2022-11-04T08:57:58.470Z,421.88
2022-11-04T08:58:58.411Z,416.25
2022-11-04T08:59:58.403Z,421.88
2022-11-04T09:00:58.374Z,421.88
2022-11-04T09:01:58.497Z,427.50
2022-11-04T09:02:58.359Z,433.12
2022-11-04T09:03:58.395Z,466.88
2022-11-04T09:04:58.351Z,489.38
2022-11-04T09:05:58.332Z,483.75
2022-11-04T09:06:58.332Z,450.00
2022-11-04T09:07:58.315Z,438.75
2022-11-04T09:08:58.366Z,444.38
2022-11-04T09:09:58.347Z,455.62
2022-11-04T09:10:58.310Z,466.88
2022-11-04T09:11:58.271Z,450.00
2022-11-04T09:12:58.256Z,438.75
2022-11-04T09:13:58.255Z,438.75
2022-11-04T09:14:58.289Z,433.12
2022-11-04T09:15:58.286Z,450.00
2022-11-04T09:16:58.231Z,450.00
2022-11-04T09:17:58.218Z,478.12
2022-11-04T09:18:58.205Z,433.12
2022-11-04T09:19:58.218Z,438.75
2022-11-04T09:20:58.369Z,444.38
2022-11-04T09:21:58.190Z,551.25
2022-11-04T09:22:58.160Z,585.00
2022-11-04T09:23:58.170Z,540.00
2022-11-04T09:24:58.160Z,562.50
2022-11-04T09:25:58.130Z,495.00
2022-11-04T09:26:58.127Z,472.50
2022-11-04T09:27:58.134Z,455.62
2022-11-04T09:28:58.294Z,455.62
2022-11-04T09:29:59.112Z,438.75
2022-11-04T09:30:58.102Z,444.38
2022-11-04T09:31:58.074Z,489.38
2022-11-04T09:32:58.066Z,450.00
2022-11-04T09:33:58.053Z,483.75
2022-11-04T09:34:58.068Z,466.88
2022-11-04T09:35:58.058Z,433.12
2022-11-04T09:36:58.108Z,427.50
2022-11-04T09:37:58.017Z,455.62
2022-11-04T09:38:58.000Z,472.50
2022-11-04T09:39:57.999Z,466.88
2022-11-04T09:40:58.008Z,455.62
2022-11-04T09:41:58.036Z,416.25
2022-11-04T09:42:57.986Z,427.50
2022-11-04T09:43:58.003Z,410.62
2022-11-04T09:45:20.666Z,416.25
2022-11-04T09:46:00.035Z,410.62
2022-11-04T09:46:57.918Z,416.25
2022-11-04T09:47:57.911Z,410.62
2022-11-04T09:48:57.910Z,427.50
2022-11-04T09:49:58.021Z,427.50
2022-11-04T09:50:57.898Z,427.50
2022-11-04T09:51:57.875Z,433.12
2022-11-04T09:52:57.930Z,433.12
2022-11-04T09:53:57.888Z,450.00
2022-11-04T09:54:57.846Z,461.25
2022-11-04T09:55:57.847Z,478.12
2022-11-04T09:56:57.838Z,478.12
2022-11-04T09:57:57.897Z,483.75
2022-11-04T09:58:57.812Z,466.88
2022-11-04T09:59:57.788Z,478.12
2022-11-04T10:00:57.848Z,483.75
2022-11-04T10:01:57.896Z,495.00
2022-11-04T10:02:57.803Z,489.38
2022-11-04T10:03:57.819Z,489.38
2022-11-04T10:04:57.741Z,478.12
2022-11-04T10:05:57.745Z,483.75
2022-11-04T10:06:57.720Z,483.75
2022-11-04T10:07:57.749Z,483.75
2022-11-04T10:08:57.818Z,483.75
2022-11-04T10:09:57.704Z,461.25
2022-11-04T10:10:57.700Z,466.88
2022-11-04T10:11:57.688Z,511.88
2022-11-04T10:12:57.660Z,511.88
2022-11-04T10:13:57.671Z,528.75
2022-11-04T10:14:57.639Z,523.12
2022-11-04T10:15:57.633Z,517.50
2022-11-04T10:16:57.690Z,517.50
2022-11-04T10:17:57.633Z,511.88
2022-11-04T10:18:57.603Z,517.50
2022-11-04T10:19:57.673Z,523.12
2022-11-04T10:20:57.644Z,534.38
2022-11-04T10:21:57.603Z,540.00
2022-11-04T10:22:57.582Z,528.75
2022-11-04T10:23:57.541Z,528.75
2022-11-04T10:24:57.633Z,517.50
2022-11-04T10:25:57.599Z,511.88
2022-11-04T10:27:00.375Z,511.88
2022-11-04T10:27:57.519Z,495.00
2022-11-04T10:28:57.554Z,495.00
2022-11-04T10:29:57.568Z,478.12
2022-11-04T10:30:57.560Z,466.88
2022-11-04T10:31:57.482Z,478.12
2022-11-04T10:32:57.484Z,500.62
2022-11-04T10:33:57.511Z,506.25
2022-11-04T10:34:57.489Z,517.50
2022-11-04T10:35:57.491Z,545.62
2022-11-04T10:36:57.466Z,517.50
2022-11-04T10:37:57.474Z,506.25
2022-11-04T10:38:57.418Z,562.50
2022-11-04T10:39:57.434Z,562.50
2022-11-04T10:40:58.317Z,590.62
2022-11-04T10:41:57.390Z,579.38
2022-11-04T10:42:57.409Z,573.75
2022-11-04T10:43:57.368Z,562.50
2022-11-04T10:44:57.380Z,568.12
2022-11-04T10:45:57.391Z,562.50
2022-11-04T10:46:57.344Z,540.00
2022-11-04T10:47:57.362Z,528.75
2022-11-04T10:48:57.325Z,523.12
2022-11-04T10:50:28.855Z,579.38
2022-11-04T10:50:59.343Z,556.88
2022-11-04T10:51:57.300Z,511.88
2022-11-04T10:52:57.284Z,483.75
2022-11-04T10:53:57.388Z,466.88
2022-11-04T10:54:57.283Z,438.75
2022-11-04T10:55:57.277Z,427.50
2022-11-04T10:56:57.337Z,410.62
2022-11-04T10:57:57.245Z,399.38
2022-11-04T10:58:57.224Z,376.88
2022-11-04T10:59:57.248Z,365.62
2022-11-04T11:00:57.271Z,360.00
2022-11-04T11:01:57.352Z,354.38
2022-11-04T11:02:57.179Z,337.50
2022-11-04T11:03:57.166Z,337.50
2022-11-04T11:04:57.156Z,331.88
2022-11-04T11:05:57.180Z,337.50
2022-11-04T11:06:57.151Z,348.75
2022-11-04T11:07:57.142Z,331.88
2022-11-04T11:08:57.117Z,343.12
2022-11-04T11:09:57.131Z,337.50
2022-11-04T11:10:57.097Z,337.50
2022-11-04T11:11:57.108Z,337.50
2022-11-04T11:12:57.078Z,331.88
2022-11-04T11:13:57.089Z,326.25
2022-11-04T11:14:57.115Z,337.50
2022-11-04T11:15:57.045Z,343.12
2022-11-04T11:16:57.049Z,343.12
2022-11-04T11:17:57.026Z,343.12
2022-11-04T11:18:58.017Z,343.12
2022-11-04T11:19:57.026Z,348.75
2022-11-04T11:20:57.047Z,343.12
2022-11-04T11:21:57.050Z,337.50
2022-11-04T11:23:01.937Z,331.88
2022-11-04T11:23:59.059Z,326.25
2022-11-04T11:24:56.950Z,337.50
2022-11-04T11:25:56.989Z,337.50
2022-11-04T11:26:56.930Z,343.12
2022-11-04T11:27:56.973Z,337.50
2022-11-04T11:28:59.346Z,331.88
2022-11-04T11:29:57.971Z,331.88
2022-11-04T11:30:56.899Z,337.50
2022-11-04T11:31:56.894Z,348.75
2022-11-04T11:32:56.878Z,354.38
2022-11-04T11:33:56.897Z,382.50
2022-11-04T11:34:56.891Z,376.88
2022-11-04T11:35:56.854Z,388.12
2022-11-04T11:36:56.846Z,376.88
2022-11-04T11:37:56.859Z,376.88
2022-11-04T11:38:56.854Z,399.38
2022-11-04T11:39:56.810Z,433.12
2022-11-04T11:41:23.438Z,433.12
2022-11-04T11:41:58.787Z,433.12
2022-11-04T11:42:56.907Z,438.75
2022-11-04T11:43:56.808Z,444.38
2022-11-04T11:44:56.784Z,438.75
2022-11-04T11:45:56.778Z,433.12
2022-11-04T11:46:56.777Z,427.50
2022-11-04T11:47:56.724Z,410.62
2022-11-04T11:48:56.745Z,410.62
2022-11-04T11:49:56.698Z,416.25
2022-11-04T11:50:56.701Z,416.25
2022-11-04T11:51:56.773Z,421.88
2022-11-04T11:52:57.647Z,410.62
2022-11-04T11:53:56.667Z,410.62
2022-11-04T11:54:56.697Z,405.00
2022-11-04T11:55:56.676Z,410.62
2022-11-04T11:57:13.297Z,416.25
2022-11-04T12:01:03.518Z,438.75
2022-11-04T12:01:57.673Z,450.00
2022-11-04T12:02:57.133Z,410.62
2022-11-04T12:09:57.510Z,405.00
2022-11-04T12:10:56.497Z,393.75
2022-11-04T12:11:56.487Z,382.50
2022-11-04T12:12:56.483Z,376.88
2022-11-04T12:13:56.513Z,393.75
2022-11-04T12:14:56.462Z,405.00
2022-11-04T12:15:56.465Z,405.00
2022-11-04T12:16:56.448Z,405.00
2022-11-04T12:17:56.430Z,399.38
2022-11-04T12:18:56.461Z,388.12
2022-11-04T12:19:56.407Z,393.75
2022-11-04T12:20:56.434Z,393.75
2022-11-04T12:21:56.383Z,393.75
2022-11-04T12:22:56.416Z,393.75
2022-11-04T12:23:56.369Z,410.62
2022-11-04T12:24:56.372Z,399.38
2022-11-04T12:25:56.361Z,376.88
2022-11-04T12:26:56.333Z,371.25
2022-11-04T12:27:56.323Z,365.62
2022-11-04T12:28:56.320Z,365.62
2022-11-04T12:29:56.311Z,365.62
2022-11-04T12:30:56.322Z,376.88
2022-11-04T12:31:56.292Z,365.62
2022-11-04T12:32:56.275Z,360.00
2022-11-04T12:33:56.286Z,354.38
2022-11-04T12:34:56.292Z,348.75
2022-11-04T12:35:56.383Z,348.75
2022-11-04T12:36:56.218Z,343.12
2022-11-04T12:37:56.222Z,348.75
2022-11-04T12:38:56.240Z,393.75
2022-11-04T12:39:56.199Z,360.00
2022-11-04T12:41:27.781Z,365.62
2022-11-04T12:42:58.171Z,421.88
2022-11-04T12:43:56.188Z,399.38
2022-11-04T12:44:56.190Z,360.00
2022-11-04T12:45:56.190Z,348.75
2022-11-04T12:46:56.121Z,343.12
2022-11-04T12:47:57.150Z,348.75
2022-11-04T12:48:59.026Z,388.12
2022-11-04T12:49:57.107Z,388.12
2022-11-04T12:50:56.095Z,376.88
2022-11-04T12:51:56.149Z,354.38
2022-11-04T12:52:56.085Z,331.88
2022-11-04T12:53:56.062Z,326.25
2022-11-04T12:54:56.064Z,309.38
2022-11-04T12:55:56.122Z,298.12
2022-11-04T12:56:56.035Z,275.62
2022-11-04T12:57:56.016Z,253.12
2022-11-04T12:58:56.155Z,241.88
2022-11-04T12:59:56.018Z,219.38
2022-11-04T13:00:59.441Z,208.12
2022-11-04T13:01:57.090Z,196.88
2022-11-04T13:02:55.959Z,202.50
2022-11-04T13:03:55.976Z,185.62
2022-11-04T13:04:55.970Z,185.62